createdAt,value
2017-10-14T00:02:02.933Z,12.50
2017-10-14T00:04:31.180Z,10.55
2017-10-14T00:06:59.451Z,11.35
2017-10-14T00:09:28.488Z,13.30
2017-10-14T00:11:56.769Z,14.15
2017-10-14T00:14:25.052Z,13.75
2017-10-14T00:16:53.321Z,15.43
2017-10-14T00:19:21.559Z,11.90
2017-10-14T00:21:49.807Z,11.75
2017-10-14T00:24:18.894Z,12.52
2017-10-14T00:26:47.148Z,11.82
2017-10-14T00:29:15.371Z,12.85
2017-10-14T00:31:44.454Z,11.45
2017-10-14T00:34:13.516Z,11.93
2017-10-14T00:36:41.770Z,12.93
2017-10-14T00:39:10.087Z,12.80
2017-10-14T00:41:39.099Z,16.08
2017-10-14T00:44:08.122Z,14.43
2017-10-14T00:46:36.403Z,12.88
2017-10-14T00:49:04.639Z,15.43
2017-10-14T00:51:33.615Z,15.13
2017-10-14T00:54:01.791Z,17.65
2017-10-14T00:56:30.863Z,15.65
2017-10-14T00:58:59.455Z,13.35
2017-10-14T01:01:27.699Z,11.98
2017-10-14T01:03:55.897Z,13.43
2017-10-14T01:06:24.139Z,14.27
2017-10-14T01:08:52.343Z,14.40
2017-10-14T01:11:20.578Z,13.60
2017-10-14T01:13:48.783Z,12.82
2017-10-14T01:16:17.173Z,14.48
2017-10-14T01:18:45.395Z,14.98
2017-10-14T01:21:13.605Z,12.90
2017-10-14T01:23:41.835Z,14.82
2017-10-14T01:26:10.067Z,16.30
2017-10-14T01:28:38.264Z,15.95
2017-10-14T01:31:07.239Z,16.05
2017-10-14T01:33:35.451Z,17.15
2017-10-14T01:36:03.932Z,15.77
2017-10-14T01:38:32.124Z,16.87
2017-10-14T01:41:00.320Z,15.88
2017-10-14T01:43:28.527Z,15.55
2017-10-14T01:45:56.784Z,16.65
2017-10-14T01:48:25.025Z,15.40
2017-10-14T01:50:53.248Z,15.05
2017-10-14T01:53:21.505Z,13.02
2017-10-14T01:55:49.707Z,15.57
2017-10-14T01:58:18.659Z,12.57
2017-10-14T02:00:46.859Z,13.57
2017-10-14T02:03:15.868Z,11.80
2017-10-14T02:05:44.843Z,14.38
2017-10-14T02:08:13.080Z,13.07
2017-10-14T02:10:41.283Z,13.10
2017-10-14T02:13:09.512Z,14.43
2017-10-14T02:15:37.718Z,13.40
2017-10-14T02:18:05.979Z,13.77
2017-10-14T02:20:34.207Z,11.82
2017-10-14T02:23:03.268Z,12.00
2017-10-14T02:25:31.455Z,11.55
2017-10-14T02:28:00.423Z,12.75
2017-10-14T02:30:28.632Z,12.60
2017-10-14T02:32:57.636Z,11.18
2017-10-14T02:35:26.600Z,12.68
2017-10-14T02:37:54.835Z,11.35
2017-10-14T02:40:23.075Z,14.00
2017-10-14T02:42:51.304Z,13.38
2017-10-14T02:45:19.508Z,12.07
2017-10-14T02:47:48.479Z,13.57
2017-10-14T02:50:16.669Z,12.43
2017-10-14T02:52:45.653Z,13.40
2017-10-14T02:55:13.862Z,11.27
2017-10-14T02:57:42.047Z,12.52
2017-10-14T03:00:10.267Z,12.88
2017-10-14T03:02:38.472Z,11.43
2017-10-14T03:05:07.480Z,12.27
2017-10-14T03:07:35.770Z,11.85
2017-10-14T03:10:03.999Z,12.00
2017-10-14T03:12:32.972Z,10.88
2017-10-14T03:15:01.192Z,12.15
2017-10-14T03:17:29.428Z,12.25
2017-10-14T03:19:57.612Z,10.07
2017-10-14T03:22:26.731Z,11.82
2017-10-14T03:24:54.941Z,11.20
2017-10-14T03:27:23.198Z,10.93
2017-10-14T03:29:51.415Z,10.45
2017-10-14T03:32:19.675Z,10.70
2017-10-14T03:34:47.882Z,12.02
2017-10-14T03:37:16.947Z,10.65
2017-10-14T03:39:45.258Z,12.50
2017-10-14T03:42:14.261Z,9.88
2017-10-14T03:44:42.452Z,10.10
2017-10-14T03:47:10.688Z,11.73
2017-10-14T03:49:39.689Z,10.48
2017-10-14T03:52:08.634Z,9.57
2017-10-14T03:54:36.928Z,10.43
2017-10-14T03:57:05.244Z,8.73
2017-10-14T03:59:33.444Z,11.00
2017-10-14T04:02:01.643Z,8.77
2017-10-14T04:04:29.864Z,10.75
2017-10-14T04:06:58.088Z,10.52
2017-10-14T04:09:26.313Z,9.95
2017-10-14T04:11:54.548Z,11.65
2017-10-14T04:14:22.768Z,9.60
2017-10-14T04:16:50.971Z,9.60
2017-10-14T04:19:19.199Z,11.55
2017-10-14T04:21:48.183Z,10.00
2017-10-14T04:24:17.237Z,10.85
2017-10-14T04:26:45.516Z,9.75
2017-10-14T04:29:13.810Z,10.65
2017-10-14T04:31:42.038Z,9.00
2017-10-14T04:34:10.348Z,9.82
2017-10-14T04:36:38.681Z,10.98
2017-10-14T04:39:06.895Z,11.48
2017-10-14T04:41:35.131Z,12.10
2017-10-14T04:44:03.355Z,9.93
2017-10-14T04:46:31.666Z,10.75
2017-10-14T04:48:59.890Z,10.27
2017-10-14T04:51:28.091Z,10.65
2017-10-14T04:53:56.316Z,12.02
2017-10-14T04:56:25.297Z,10.30
2017-10-14T04:58:53.478Z,9.82
2017-10-14T05:01:22.459Z,10.57
2017-10-14T05:03:50.745Z,10.38
2017-10-14T05:06:18.980Z,9.57
2017-10-14T05:08:48.053Z,9.52
2017-10-14T05:11:17.144Z,10.13
2017-10-14T05:13:45.372Z,12.45
2017-10-14T05:16:13.864Z,11.95
2017-10-14T05:18:42.099Z,9.70
2017-10-14T05:21:11.193Z,10.52
2017-10-14T05:23:40.159Z,8.77
2017-10-14T05:26:08.355Z,9.90
2017-10-14T05:28:37.331Z,10.45
2017-10-14T05:31:05.567Z,9.73
2017-10-14T05:33:33.775Z,9.32
2017-10-14T05:38:40.949Z,9.65
2017-10-14T05:41:13.994Z,9.68
2017-10-14T05:43:42.393Z,9.32
2017-10-14T05:46:10.727Z,8.57
2017-10-14T05:48:39.729Z,7.60
2017-10-14T05:51:08.892Z,9.73
2017-10-14T05:53:37.156Z,7.43
2017-10-14T05:56:05.375Z,8.68
2017-10-14T05:58:34.370Z,9.18
2017-10-14T06:01:03.445Z,11.40
2017-10-14T06:03:31.854Z,13.57
2017-10-14T06:06:00.067Z,10.95
2017-10-14T06:08:28.307Z,7.72
2017-10-14T06:10:56.539Z,9.98
2017-10-14T06:13:24.796Z,12.13
2017-10-14T06:15:53.030Z,8.48
2017-10-14T06:18:21.251Z,10.73
2017-10-14T06:20:49.539Z,8.63
2017-10-14T06:23:17.755Z,9.77
2017-10-14T06:25:46.029Z,8.70
2017-10-14T06:28:14.234Z,11.88
2017-10-14T06:30:43.194Z,9.30
2017-10-14T06:33:11.427Z,12.27
2017-10-14T06:35:39.663Z,8.73
2017-10-14T06:38:07.872Z,9.30
2017-10-14T06:40:36.149Z,8.52
2017-10-14T06:43:04.360Z,9.57
2017-10-14T06:45:33.322Z,8.00
2017-10-14T06:48:01.560Z,11.10
2017-10-14T06:50:30.058Z,11.10
2017-10-14T06:52:58.272Z,9.82
2017-10-14T06:55:27.310Z,9.00
2017-10-14T06:57:55.548Z,11.30
2017-10-14T07:00:23.777Z,10.80
2017-10-14T07:02:52.112Z,8.32
2017-10-14T07:05:20.423Z,11.65
2017-10-14T07:07:48.639Z,10.55
2017-10-14T07:10:17.606Z,9.52
2017-10-14T07:12:45.857Z,11.98
2017-10-14T07:15:14.088Z,9.48
2017-10-14T07:17:42.297Z,9.93
2017-10-14T07:20:10.509Z,9.00
2017-10-14T07:22:38.720Z,8.50
2017-10-14T07:25:06.941Z,11.32
2017-10-14T07:27:35.169Z,8.65
2017-10-14T07:30:03.387Z,12.57
2017-10-14T07:32:31.708Z,10.25
2017-10-14T07:34:59.944Z,8.48
2017-10-14T07:37:28.164Z,9.15
2017-10-14T07:39:56.405Z,10.55
2017-10-14T07:42:24.604Z,7.87
2017-10-14T07:44:53.567Z,7.75
2017-10-14T07:47:22.322Z,9.05
2017-10-14T07:49:50.584Z,8.52
2017-10-14T07:52:18.808Z,11.02
2017-10-14T07:54:46.997Z,8.57
2017-10-14T07:57:16.011Z,9.73
2017-10-14T07:59:44.321Z,8.85
2017-10-14T08:02:12.575Z,9.20
2017-10-14T08:04:40.808Z,8.48
2017-10-14T08:07:09.829Z,11.40
2017-10-14T08:09:38.152Z,7.72
2017-10-14T08:12:06.367Z,8.50
2017-10-14T08:14:34.598Z,8.30
2017-10-14T08:17:02.895Z,9.40
2017-10-14T08:19:31.908Z,7.97
2017-10-14T08:22:00.132Z,8.13
2017-10-14T08:24:28.361Z,7.30
2017-10-14T08:26:56.595Z,12.75
2017-10-14T08:29:24.864Z,10.52
2017-10-14T08:31:53.246Z,7.53
2017-10-14T08:34:21.586Z,9.48
2017-10-14T08:36:49.864Z,7.10
2017-10-14T08:39:18.881Z,9.93
2017-10-14T08:41:47.121Z,7.25
2017-10-14T08:44:15.378Z,7.12
2017-10-14T08:46:44.352Z,6.85
2017-10-14T08:49:13.333Z,7.95
2017-10-14T08:51:41.680Z,7.45
2017-10-14T08:54:09.944Z,6.68
2017-10-14T08:56:38.969Z,7.10
2017-10-14T08:59:08.031Z,12.65
2017-10-14T09:01:36.240Z,9.68
2017-10-14T09:04:05.330Z,6.90
2017-10-14T09:06:33.559Z,9.73
2017-10-14T09:09:01.880Z,8.10
2017-10-14T09:11:30.154Z,9.43
2017-10-14T09:13:58.461Z,8.43
2017-10-14T09:16:27.502Z,9.32
2017-10-14T09:18:55.772Z,8.30
2017-10-14T09:21:23.978Z,9.07
2017-10-14T09:23:52.204Z,8.95
2017-10-14T09:26:20.464Z,14.18
2017-10-14T09:28:48.710Z,8.20
2017-10-14T09:31:17.722Z,9.73
2017-10-14T09:33:46.708Z,9.55
2017-10-14T09:36:15.683Z,8.60
2017-10-14T09:38:43.920Z,9.65
2017-10-14T09:41:12.140Z,8.73
2017-10-14T09:43:41.280Z,10.95
2017-10-14T09:46:09.576Z,11.52
2017-10-14T09:48:37.790Z,9.25
2017-10-14T09:51:06.781Z,11.27
2017-10-14T09:53:35.824Z,11.02
2017-10-14T09:56:04.053Z,10.25
2017-10-14T09:58:33.044Z,8.85
2017-10-14T10:01:02.038Z,12.07
2017-10-14T10:03:30.347Z,9.68
2017-10-14T10:05:58.595Z,8.98
2017-10-14T10:08:27.576Z,10.05
2017-10-14T10:10:56.672Z,10.80
2017-10-14T10:13:25.760Z,8.75
2017-10-14T10:15:54.793Z,8.57
2017-10-14T10:18:23.071Z,11.90
2017-10-14T10:20:51.306Z,10.18
2017-10-14T10:23:20.364Z,9.63
2017-10-14T10:25:48.635Z,9.30
2017-10-14T10:31:43.180Z,12.30
2017-10-14T10:34:12.441Z,13.00
2017-10-14T10:36:41.438Z,9.10
2017-10-14T10:39:09.667Z,13.15
2017-10-14T10:41:37.926Z,12.60
2017-10-14T10:44:06.941Z,11.23
2017-10-14T10:46:35.175Z,11.93
2017-10-14T10:49:03.428Z,11.63
2017-10-14T10:51:31.669Z,10.00
2017-10-14T10:53:59.876Z,13.48
2017-10-14T10:56:28.102Z,10.23
2017-10-14T10:58:57.117Z,12.68
2017-10-14T11:01:25.379Z,11.75
2017-10-14T11:03:53.643Z,10.98
2017-10-14T11:06:22.610Z,14.93
2017-10-14T11:08:51.333Z,12.32
2017-10-14T11:11:19.658Z,12.50
2017-10-14T11:13:48.010Z,11.52
2017-10-14T11:16:16.240Z,10.25
2017-10-14T11:18:45.482Z,10.90
2017-10-14T11:21:14.393Z,12.18
2017-10-14T11:23:42.607Z,11.45
2017-10-14T11:26:11.680Z,18.10
2017-10-14T11:28:39.904Z,13.35
2017-10-14T11:31:08.130Z,13.27
2017-10-14T11:33:36.384Z,12.90
2017-10-14T11:36:04.651Z,15.02
2017-10-14T11:38:32.913Z,13.27
2017-10-14T11:41:01.147Z,12.63
2017-10-14T11:43:30.203Z,12.50
2017-10-14T11:45:58.433Z,13.93
2017-10-14T11:48:26.648Z,13.50
2017-10-14T11:50:54.938Z,11.93
2017-10-14T11:53:23.160Z,14.02
2017-10-14T11:55:51.664Z,13.88
2017-10-14T11:58:19.925Z,12.18
2017-10-14T12:00:48.189Z,14.00
2017-10-14T12:03:26.818Z,15.70
2017-10-14T12:05:55.132Z,13.55
2017-10-14T12:08:36.504Z,16.27
2017-10-14T12:11:05.006Z,12.37
2017-10-14T12:13:34.157Z,14.82
2017-10-14T12:16:02.515Z,16.00
2017-10-14T12:18:30.830Z,12.77
2017-10-14T12:20:59.267Z,14.30
2017-10-14T12:23:27.701Z,14.40
2017-10-14T12:25:56.072Z,15.20
2017-10-14T12:28:24.367Z,15.57
2017-10-14T12:30:52.716Z,15.18
2017-10-14T12:33:20.970Z,13.25
2017-10-14T12:35:49.239Z,15.98
2017-10-14T12:38:17.579Z,14.73
2017-10-14T12:40:46.641Z,14.93
2017-10-14T12:43:14.920Z,13.00
2017-10-14T12:45:43.258Z,15.13
2017-10-14T12:48:11.602Z,17.65
2017-10-14T12:50:39.958Z,16.60
2017-10-14T12:53:08.317Z,17.20
2017-10-14T12:55:37.609Z,15.40
2017-10-14T12:58:05.910Z,18.02
2017-10-14T13:00:34.293Z,15.32
2017-10-14T13:03:03.346Z,15.52
2017-10-14T13:05:31.628Z,17.50
2017-10-14T13:07:59.896Z,14.80
2017-10-14T13:10:28.386Z,17.20
2017-10-14T13:12:58.600Z,15.43
2017-10-14T13:15:27.040Z,17.37
2017-10-14T13:17:56.158Z,18.00
2017-10-14T13:20:24.568Z,20.58
2017-10-14T13:22:52.942Z,16.23
2017-10-14T13:25:22.066Z,17.23
2017-10-14T13:27:50.300Z,16.12
2017-10-14T13:30:18.795Z,17.00
2017-10-14T13:32:47.046Z,16.37
2017-10-14T13:35:15.271Z,17.17
2017-10-14T13:37:43.493Z,18.05
2017-10-14T13:40:11.781Z,16.42
2017-10-14T13:42:40.059Z,18.92
2017-10-14T13:47:42.904Z,17.65
2017-10-14T13:50:11.955Z,17.90
2017-10-14T13:52:40.205Z,18.15
2017-10-14T13:55:08.447Z,19.58
2017-10-14T13:57:37.531Z,17.67
2017-10-14T14:00:05.881Z,21.17
2017-10-14T14:02:34.114Z,18.70
2017-10-14T14:05:03.136Z,20.08
2017-10-14T14:07:31.427Z,17.55
2017-10-14T14:09:59.658Z,18.50
2017-10-14T14:12:27.981Z,18.45
2017-10-14T14:14:56.271Z,17.87
2017-10-14T14:17:24.516Z,18.58
2017-10-14T14:19:52.734Z,18.40
2017-10-14T14:22:21.825Z,21.15
2017-10-14T14:24:50.836Z,18.92
2017-10-14T14:27:19.823Z,18.00
2017-10-14T14:29:48.870Z,18.17
2017-10-14T14:32:17.137Z,20.62
2017-10-14T14:34:45.350Z,20.30
2017-10-14T14:37:13.564Z,19.62
2017-10-14T14:39:41.771Z,16.60
2017-10-14T14:42:09.961Z,18.05
2017-10-14T14:44:38.189Z,18.12
2017-10-14T14:47:06.420Z,20.62
2017-10-14T14:49:34.638Z,19.08
2017-10-14T14:52:02.847Z,19.77
2017-10-14T14:54:31.059Z,21.58
2017-10-14T14:57:00.064Z,20.17
2017-10-14T14:59:29.023Z,19.08
2017-10-14T15:01:57.504Z,19.17
2017-10-14T15:04:25.701Z,20.75
2017-10-14T15:06:54.659Z,21.55
2017-10-14T15:09:22.888Z,22.73
2017-10-14T15:11:51.065Z,20.70
2017-10-14T15:14:19.295Z,21.55
2017-10-14T15:16:47.499Z,23.90
2017-10-14T15:19:15.718Z,22.80
2017-10-14T15:21:43.941Z,20.15
2017-10-14T15:24:12.163Z,19.33
2017-10-14T15:26:40.502Z,20.77
2017-10-14T15:29:08.789Z,20.58
2017-10-14T15:31:36.970Z,17.12
2017-10-14T15:34:05.192Z,18.83
2017-10-14T15:36:33.389Z,17.98
2017-10-14T15:39:01.587Z,17.55
2017-10-14T15:41:29.827Z,20.62
2017-10-14T15:43:58.882Z,17.02
2017-10-14T15:46:27.116Z,15.85
2017-10-14T15:48:55.347Z,17.50
2017-10-14T15:51:23.588Z,14.60
2017-10-14T15:53:51.749Z,16.60
2017-10-14T15:56:19.952Z,19.37
2017-10-14T15:58:48.150Z,17.62
2017-10-14T16:01:16.351Z,15.88
2017-10-14T16:03:44.547Z,14.38
2017-10-14T16:06:12.831Z,15.63
2017-10-14T16:08:41.059Z,16.70
2017-10-14T16:11:10.064Z,15.10
2017-10-14T16:13:39.136Z,15.15
2017-10-14T16:16:07.340Z,15.77
2017-10-14T16:18:35.607Z,14.65
2017-10-14T16:21:03.849Z,14.60
2017-10-14T16:23:32.041Z,14.23
2017-10-14T16:26:01.082Z,14.32
2017-10-14T16:28:29.313Z,14.98
2017-10-14T16:30:58.267Z,13.48
2017-10-14T16:33:27.217Z,15.65
2017-10-14T16:35:55.446Z,14.32
2017-10-14T16:38:23.627Z,12.98
2017-10-14T16:40:51.840Z,14.55
2017-10-14T16:43:20.032Z,18.77
2017-10-14T16:45:48.224Z,13.13
2017-10-14T16:48:17.387Z,12.63
2017-10-14T16:50:45.596Z,13.07
2017-10-14T16:53:13.852Z,11.65
2017-10-14T16:55:42.052Z,12.18
2017-10-14T16:58:10.387Z,13.52
2017-10-14T17:00:38.588Z,14.95
2017-10-14T17:03:06.911Z,12.80
2017-10-14T17:05:35.886Z,12.88
2017-10-14T17:08:04.086Z,13.32
2017-10-14T17:10:32.284Z,12.80
2017-10-14T17:13:00.470Z,14.82
2017-10-14T17:15:28.678Z,12.80
2017-10-14T17:17:56.900Z,11.68
2017-10-14T17:20:25.132Z,12.05
2017-10-14T17:22:54.111Z,12.95
2017-10-14T17:25:22.439Z,12.63
2017-10-14T17:27:50.658Z,12.70
2017-10-14T17:30:18.853Z,12.18
2017-10-14T17:32:47.809Z,10.77
2017-10-14T17:35:16.019Z,12.35
2017-10-14T17:37:45.154Z,13.73
2017-10-14T17:40:13.370Z,10.90
2017-10-14T17:42:41.553Z,13.48
2017-10-14T17:45:10.519Z,11.40
2017-10-14T17:47:38.814Z,12.27
2017-10-14T17:50:07.031Z,13.18
2017-10-14T17:52:35.266Z,11.25
2017-10-14T17:55:03.435Z,11.10
2017-10-14T17:57:31.636Z,10.88
2017-10-14T17:59:59.843Z,13.20
2017-10-14T18:02:28.815Z,11.50
2017-10-14T18:04:57.019Z,11.25
2017-10-14T18:07:25.222Z,11.77
2017-10-14T18:09:53.484Z,10.63
2017-10-14T18:12:21.704Z,11.88
2017-10-14T18:14:49.914Z,9.95
2017-10-14T18:17:18.126Z,10.75
2017-10-14T18:19:47.109Z,10.75
2017-10-14T18:22:15.342Z,11.82
2017-10-14T18:24:43.575Z,11.05
2017-10-14T18:27:11.819Z,11.12
2017-10-14T18:29:39.999Z,13.32
2017-10-14T18:32:08.215Z,10.27
2017-10-14T18:34:36.417Z,10.85
2017-10-14T18:37:04.650Z,10.82
2017-10-14T18:39:33.606Z,10.55
2017-10-14T18:42:01.786Z,9.18
2017-10-14T18:44:30.036Z,10.82
2017-10-14T18:46:58.225Z,11.32
2017-10-14T18:49:26.448Z,9.32
2017-10-14T18:51:54.656Z,11.50
2017-10-14T18:54:23.614Z,12.27
2017-10-14T18:56:51.824Z,11.12
2017-10-14T18:59:20.047Z,11.15
2017-10-14T19:01:48.997Z,9.95
2017-10-14T19:04:17.205Z,13.07
2017-10-14T19:06:46.351Z,10.43
2017-10-14T19:09:14.577Z,11.82
2017-10-14T19:11:43.640Z,10.73
2017-10-14T19:14:11.880Z,10.93
2017-10-14T19:16:40.901Z,12.77
2017-10-14T19:19:09.152Z,10.35
2017-10-14T19:21:37.433Z,10.30
2017-10-14T19:24:05.692Z,11.40
2017-10-14T19:26:33.925Z,10.30
2017-10-14T19:29:02.176Z,10.18
2017-10-14T19:31:30.432Z,9.65
2017-10-14T19:33:58.666Z,10.80
2017-10-14T19:36:27.661Z,11.05
2017-10-14T19:38:55.919Z,10.88
2017-10-14T19:43:59.207Z,12.27
2017-10-14T19:46:27.528Z,10.10
2017-10-14T19:48:55.775Z,12.00
2017-10-14T19:51:24.017Z,9.32
2017-10-14T19:53:52.296Z,10.65
2017-10-14T19:56:20.543Z,10.07
2017-10-14T19:58:48.764Z,10.73
2017-10-14T20:01:17.035Z,10.45
2017-10-14T20:03:45.305Z,9.00
2017-10-14T20:06:13.543Z,9.07
2017-10-14T20:08:41.776Z,10.15
2017-10-14T20:11:10.820Z,8.55
2017-10-14T20:13:39.068Z,10.82
2017-10-14T20:16:07.300Z,10.30
2017-10-14T20:18:35.579Z,10.55
2017-10-14T20:21:03.827Z,9.75
2017-10-14T20:23:32.088Z,8.75
2017-10-14T20:26:00.334Z,9.13
2017-10-14T20:28:28.588Z,9.02
2017-10-14T20:30:56.801Z,11.63
2017-10-14T20:33:25.032Z,9.68
2017-10-14T20:35:53.256Z,10.88
2017-10-14T20:38:21.501Z,9.90
2017-10-14T20:40:50.507Z,9.52
2017-10-14T20:43:18.738Z,10.55
2017-10-14T20:45:47.004Z,11.12
2017-10-14T20:48:15.255Z,9.93
2017-10-14T20:50:43.499Z,9.10
2017-10-14T20:53:11.733Z,9.70
2017-10-14T20:55:40.002Z,10.95
2017-10-14T20:58:08.240Z,9.68
2017-10-14T21:00:36.479Z,11.82
2017-10-14T21:03:04.655Z,10.20
2017-10-14T21:05:33.839Z,9.30
2017-10-14T21:08:02.062Z,8.38
2017-10-14T21:10:30.345Z,8.77
2017-10-14T21:12:58.572Z,9.00
2017-10-14T21:15:26.760Z,9.68
2017-10-14T21:17:55.759Z,8.48
2017-10-14T21:20:23.962Z,8.77
2017-10-14T21:22:53.100Z,9.63
2017-10-14T21:25:22.140Z,9.57
2017-10-14T21:27:50.383Z,10.48
2017-10-14T21:30:19.363Z,8.85
2017-10-14T21:32:48.339Z,10.13
2017-10-14T21:35:16.543Z,10.40
2017-10-14T21:37:45.630Z,10.60
2017-10-14T21:40:14.596Z,10.25
2017-10-14T21:42:42.793Z,10.82
2017-10-14T21:45:12.370Z,11.45
2017-10-14T21:47:40.614Z,10.63
2017-10-14T21:50:08.814Z,13.23
2017-10-14T21:52:37.034Z,12.63
2017-10-14T21:55:06.021Z,11.90
2017-10-14T21:57:34.970Z,12.15
2017-10-14T22:00:03.181Z,12.20
2017-10-14T22:02:32.216Z,12.25
2017-10-14T22:05:00.490Z,11.50
2017-10-14T22:07:28.721Z,12.07
2017-10-14T22:09:57.735Z,13.20
2017-10-14T22:12:25.938Z,11.90
2017-10-14T22:14:54.223Z,12.45
2017-10-14T22:17:22.450Z,13.82
2017-10-14T22:19:51.426Z,11.30
2017-10-14T22:22:20.406Z,13.85
2017-10-14T22:24:48.693Z,14.45
2017-10-14T22:27:16.895Z,13.75
2017-10-14T22:29:45.116Z,11.70
2017-10-14T22:32:13.302Z,12.48
2017-10-14T22:34:41.556Z,11.93
2017-10-14T22:37:09.734Z,13.05
2017-10-14T22:39:37.946Z,13.10
2017-10-14T22:42:07.807Z,13.50
2017-10-14T22:44:36.119Z,13.10
2017-10-14T22:47:04.313Z,14.05
2017-10-14T22:49:32.593Z,12.68
2017-10-14T22:52:00.755Z,13.45
2017-10-14T22:54:29.739Z,13.23
2017-10-14T22:56:58.719Z,14.68
2017-10-14T22:59:26.927Z,13.27
2017-10-14T23:01:56.036Z,13.57
2017-10-14T23:04:24.357Z,19.98
2017-10-14T23:06:52.574Z,12.55
2017-10-14T23:09:20.804Z,11.85
2017-10-14T23:11:49.014Z,12.95
2017-10-14T23:14:17.318Z,13.95
2017-10-14T23:16:45.516Z,14.25
2017-10-14T23:19:13.760Z,13.30
2017-10-14T23:21:41.982Z,13.48
2017-10-14T23:24:10.180Z,13.93
2017-10-14T23:26:39.148Z,16.02
2017-10-14T23:29:07.371Z,14.30
2017-10-14T23:31:35.585Z,14.95
2017-10-14T23:34:03.885Z,15.60
2017-10-14T23:36:32.157Z,14.45
2017-10-14T23:39:01.167Z,14.60
2017-10-14T23:41:30.128Z,16.62
2017-10-14T23:43:58.321Z,16.60
2017-10-14T23:46:27.338Z,16.25
2017-10-14T23:48:55.526Z,15.27
2017-10-14T23:51:23.738Z,15.10
2017-10-14T23:53:51.953Z,13.65
2017-10-14T23:56:20.181Z,14.55
2017-10-14T23:58:48.378Z,14.18
